createdAt,value
2022-10-05T00:02:27.351Z,100710.88
2022-10-05T00:04:59.985Z,100702.00
2022-10-05T00:07:32.771Z,100702.78
2022-10-05T00:10:02.896Z,100693.03
2022-10-05T00:12:32.548Z,100691.97
2022-10-05T00:15:03.467Z,100688.41
2022-10-05T00:17:33.307Z,100685.78
2022-10-05T00:20:17.240Z,100690.25
2022-10-05T00:22:46.810Z,100683.34
2022-10-05T00:25:18.346Z,100680.00
2022-10-05T00:27:49.435Z,100672.16
2022-10-05T00:30:21.472Z,100674.06
2022-10-05T00:32:56.016Z,100678.50
2022-10-05T00:35:31.781Z,100677.75
2022-10-05T00:38:01.353Z,100674.22
2022-10-05T00:40:40.021Z,100674.22
2022-10-05T00:43:25.205Z,100673.31
2022-10-05T00:45:59.297Z,100674.94
2022-10-05T00:48:29.824Z,100676.53
2022-10-05T00:51:12.731Z,100672.88
2022-10-05T00:53:46.768Z,100677.91
2022-10-05T00:56:25.622Z,100668.91
2022-10-05T00:59:01.184Z,100676.59
2022-10-05T01:01:35.611Z,100678.94
2022-10-05T01:04:11.272Z,100677.09
2022-10-05T01:06:48.557Z,100677.91
2022-10-05T01:09:25.508Z,100674.25
2022-10-05T01:11:59.604Z,100680.34
2022-10-05T01:14:32.945Z,100668.00
2022-10-05T01:17:05.473Z,100675.94
2022-10-05T01:19:55.217Z,100673.16
2022-10-05T01:22:35.296Z,100675.88
2022-10-05T01:25:22.977Z,100669.69
2022-10-05T01:28:02.133Z,100671.56
2022-10-05T01:30:35.359Z,100663.75
2022-10-05T01:33:10.709Z,100659.34
2022-10-05T01:35:46.181Z,100663.84
2022-10-05T01:38:26.965Z,100661.31
2022-10-05T01:41:03.019Z,100662.31
2022-10-05T01:43:39.241Z,100655.41
2022-10-05T01:46:16.857Z,100654.66
2022-10-05T01:48:51.383Z,100647.75
2022-10-05T01:51:28.119Z,100649.59
2022-10-05T01:54:06.605Z,100647.88
2022-10-05T01:56:41.771Z,100639.16
2022-10-05T01:59:21.040Z,100636.44
2022-10-05T02:01:55.606Z,100635.56
2022-10-05T02:05:00.338Z,100636.56
2022-10-05T02:07:24.322Z,100633.22
2022-10-05T02:09:57.817Z,100620.88
2022-10-05T02:12:30.695Z,100619.13
2022-10-05T02:15:09.975Z,100616.47
2022-10-05T02:17:42.165Z,100618.06
2022-10-05T02:20:15.347Z,100619.78
2022-10-05T02:22:48.687Z,100617.97
2022-10-05T02:25:20.835Z,100614.38
2022-10-05T02:27:55.645Z,100619.66
2022-10-05T02:30:28.099Z,100619.56
2022-10-05T02:33:01.473Z,100623.97
2022-10-05T02:35:31.304Z,100623.91
2022-10-05T02:38:08.682Z,100625.72
2022-10-05T02:40:49.757Z,100614.28
2022-10-05T02:43:25.951Z,100621.41
2022-10-05T02:46:03.375Z,100616.97
2022-10-05T02:48:40.859Z,100615.97
2022-10-05T02:51:18.798Z,100613.22
2022-10-05T02:54:00.305Z,100610.44
2022-10-05T02:56:34.296Z,100605.97
2022-10-05T02:59:09.563Z,100603.31
2022-10-05T03:01:44.885Z,100605.00
2022-10-05T03:04:22.320Z,100608.47
2022-10-05T03:06:57.329Z,100604.78
2022-10-05T03:09:32.066Z,100600.03
2022-10-05T03:12:07.281Z,100603.22
2022-10-05T03:14:43.694Z,100601.03
2022-10-05T03:17:19.156Z,100596.19
2022-10-05T03:20:02.205Z,100594.91
2022-10-05T03:22:43.258Z,100590.13
2022-10-05T03:25:39.547Z,100591.56
2022-10-05T03:28:16.183Z,100599.31
2022-10-05T03:30:51.299Z,100596.63
2022-10-05T03:33:31.305Z,100595.66
2022-10-05T03:36:08.577Z,100583.28
2022-10-05T03:38:51.760Z,100577.91
2022-10-05T03:41:27.201Z,100584.94
2022-10-05T03:44:11.409Z,100587.38
2022-10-05T03:46:56.551Z,100581.09
2022-10-05T03:49:35.517Z,100576.56
2022-10-05T03:52:09.899Z,100568.59
2022-10-05T03:54:42.012Z,100569.56
2022-10-05T03:57:14.425Z,100566.84
2022-10-05T03:59:49.373Z,100560.66
2022-10-05T04:02:23.815Z,100550.03
2022-10-05T04:04:59.276Z,100557.16
2022-10-05T04:07:39.096Z,100558.06
2022-10-05T04:10:15.605Z,100552.91
2022-10-05T04:12:49.228Z,100548.59
2022-10-05T04:15:24.229Z,100557.47
2022-10-05T04:17:58.803Z,100559.22
2022-10-05T04:20:36.231Z,100554.72
2022-10-05T04:23:14.187Z,100549.19
2022-10-05T04:25:46.801Z,100553.50
2022-10-05T04:28:20.579Z,100548.19
2022-10-05T04:30:52.311Z,100552.63
2022-10-05T04:33:23.042Z,100541.00
2022-10-05T04:36:08.030Z,100552.22
2022-10-05T04:38:51.761Z,100554.66
2022-10-05T04:41:34.683Z,100558.81
2022-10-05T04:44:14.502Z,100554.94
2022-10-05T04:46:56.926Z,100556.53
2022-10-05T04:49:37.286Z,100553.81
2022-10-05T04:52:16.191Z,100558.19
2022-10-05T04:54:57.756Z,100552.72
2022-10-05T04:57:31.622Z,100554.47
2022-10-05T05:00:05.602Z,100556.25
2022-10-05T05:02:45.815Z,100549.22
2022-10-05T05:05:26.168Z,100551.88
2022-10-05T05:08:06.197Z,100555.59
2022-10-05T05:10:46.899Z,100563.50
2022-10-05T05:13:30.883Z,100561.69
2022-10-05T05:16:01.422Z,100560.91
2022-10-05T05:18:44.959Z,100557.38
2022-10-05T05:21:22.216Z,100559.09
2022-10-05T05:24:00.295Z,100560.00
2022-10-05T05:26:39.015Z,100558.03
2022-10-05T05:29:14.571Z,100560.53
2022-10-05T05:31:48.599Z,100562.19
2022-10-05T05:34:33.145Z,100555.88
2022-10-05T05:37:03.160Z,100552.22
2022-10-05T05:39:42.436Z,100553.91
2022-10-05T05:42:21.609Z,100563.59
2022-10-05T05:44:53.631Z,100557.38
2022-10-05T05:47:31.192Z,100557.28
2022-10-05T05:50:12.085Z,100556.22
2022-10-05T05:52:45.986Z,100567.59
2022-10-05T05:55:24.411Z,100554.25
2022-10-05T05:58:00.303Z,100559.44
2022-10-05T06:00:34.379Z,100558.34
2022-10-05T06:03:10.998Z,100564.44
2022-10-05T06:05:44.085Z,100565.25
2022-10-05T06:08:21.402Z,100553.53
2022-10-05T06:11:01.392Z,100563.84
2022-10-05T06:13:34.195Z,100563.75
2022-10-05T06:16:09.325Z,100567.16
2022-10-05T06:18:40.399Z,100562.56
2022-10-05T06:21:14.565Z,100560.66
2022-10-05T06:23:46.153Z,100566.78
2022-10-05T06:26:26.490Z,100571.06
2022-10-05T06:29:01.001Z,100568.34
2022-10-05T06:31:41.318Z,100568.13
2022-10-05T06:34:22.104Z,100565.28
2022-10-05T06:36:54.338Z,100566.88
2022-10-05T06:39:38.932Z,100569.22
2022-10-05T06:42:23.900Z,100564.47
2022-10-05T06:45:20.309Z,100562.41
2022-10-05T06:48:20.093Z,100569.38
2022-10-05T06:51:03.939Z,100564.69
2022-10-05T06:53:53.025Z,100559.09
2022-10-05T06:56:26.741Z,100557.91
2022-10-05T06:59:05.519Z,100552.19
2022-10-05T07:01:43.314Z,100565.34
2022-10-05T07:04:25.624Z,100560.47
2022-10-05T07:06:57.991Z,100563.75
2022-10-05T07:09:36.886Z,100564.13
2022-10-05T07:12:20.390Z,100560.16
2022-10-05T07:15:01.342Z,100559.75
2022-10-05T07:17:44.215Z,100566.47
2022-10-05T07:20:20.267Z,100556.34
2022-10-05T07:22:54.065Z,100553.50
2022-10-05T07:25:26.540Z,100559.63
2022-10-05T07:28:01.972Z,100563.75
2022-10-05T07:30:40.463Z,100561.75
2022-10-05T07:33:13.151Z,100566.06
2022-10-05T07:35:59.776Z,100562.28
2022-10-05T07:38:33.745Z,100569.25
2022-10-05T07:41:08.615Z,100564.72
2022-10-05T07:44:01.558Z,100582.41
2022-10-05T07:46:46.743Z,100574.34
2022-10-05T07:49:24.374Z,100569.59
2022-10-05T07:51:58.043Z,100571.00
2022-10-05T07:54:28.935Z,100582.19
2022-10-05T07:57:03.178Z,100569.44
2022-10-05T07:59:38.702Z,100578.22
2022-10-05T08:02:18.314Z,100585.25
2022-10-05T08:04:53.237Z,100590.50
2022-10-05T08:09:56.290Z,100580.50
2022-10-05T08:12:32.057Z,100588.34
2022-10-05T08:15:06.165Z,100584.56
2022-10-05T08:17:49.810Z,100588.00
2022-10-05T08:20:28.739Z,100589.03
2022-10-05T08:23:01.440Z,100583.69
2022-10-05T08:25:43.628Z,100580.88
2022-10-05T08:28:17.256Z,100586.53
2022-10-05T08:31:04.512Z,100574.47
2022-10-05T08:33:45.996Z,100575.44
2022-10-05T08:36:16.212Z,100565.69
2022-10-05T08:38:46.100Z,100569.25
2022-10-05T08:41:37.632Z,100570.25
2022-10-05T08:44:49.936Z,100563.97
2022-10-05T08:47:45.662Z,100560.25
2022-10-05T08:50:28.149Z,100561.91
2022-10-05T08:53:25.486Z,100554.84
2022-10-05T08:56:05.257Z,100558.06
2022-10-05T08:59:13.325Z,100560.97
2022-10-05T09:01:58.860Z,100556.72
2022-10-05T09:04:38.670Z,100566.09
2022-10-05T09:07:17.431Z,100560.13
2022-10-05T09:10:13.144Z,100547.13
2022-10-05T09:12:53.087Z,100555.09
2022-10-05T09:15:40.129Z,100551.38
2022-10-05T09:18:39.555Z,100551.94
2022-10-05T09:21:16.604Z,100550.09
2022-10-05T09:23:52.131Z,100548.94
2022-10-05T09:26:45.046Z,100548.56
2022-10-05T09:29:47.141Z,100540.22
2022-10-05T09:32:36.629Z,100541.72
2022-10-05T09:35:24.845Z,100533.38
2022-10-05T09:38:18.308Z,100535.75
2022-10-05T09:41:19.295Z,100530.09
2022-10-05T09:44:40.485Z,100532.97
2022-10-05T09:47:29.080Z,100533.09
2022-10-05T09:50:46.023Z,100524.69
2022-10-05T09:53:40.532Z,100526.41
2022-10-05T09:56:15.766Z,100533.88
2022-10-05T09:59:18.328Z,100535.19
2022-10-05T10:02:17.020Z,100528.13
2022-10-05T10:05:06.871Z,100528.13
2022-10-05T10:08:01.101Z,100526.00
2022-10-05T10:11:00.461Z,100532.63
2022-10-05T10:13:53.513Z,100517.28
2022-10-05T10:16:33.431Z,100518.66
2022-10-05T10:19:12.708Z,100516.69
2022-10-05T10:22:04.791Z,100525.47
2022-10-05T10:24:59.713Z,100520.78
2022-10-05T10:27:41.513Z,100527.31
2022-10-05T10:30:36.488Z,100517.22
2022-10-05T10:33:25.725Z,100528.13
2022-10-05T10:36:00.543Z,100530.63
2022-10-05T10:38:42.232Z,100513.75
2022-10-05T10:41:43.448Z,100514.47
2022-10-05T10:44:42.883Z,100511.69
2022-10-05T10:47:30.031Z,100506.19
2022-10-05T10:50:14.447Z,100508.75
2022-10-05T10:52:53.859Z,100505.84
2022-10-05T10:55:36.816Z,100505.13
2022-10-05T10:58:27.402Z,100493.38
2022-10-05T11:01:07.050Z,100491.31
2022-10-05T11:04:01.023Z,100491.16
2022-10-05T11:06:45.731Z,100480.41
2022-10-05T11:09:29.495Z,100471.13
2022-10-05T11:12:35.090Z,100478.03
2022-10-05T11:15:14.940Z,100472.13
2022-10-05T11:18:08.156Z,100464.94
2022-10-05T11:21:13.060Z,100463.22
2022-10-05T11:24:20.931Z,100462.72
2022-10-05T11:27:11.746Z,100456.94
2022-10-05T11:30:06.246Z,100448.13
2022-10-05T11:32:47.271Z,100438.59
2022-10-05T11:35:36.510Z,100430.72
2022-10-05T11:38:28.125Z,100427.88
2022-10-05T11:41:18.667Z,100427.25
2022-10-05T11:44:06.349Z,100420.34
2022-10-05T11:46:44.635Z,100416.78
2022-10-05T11:49:29.632Z,100403.38
2022-10-05T11:52:06.917Z,100401.66
2022-10-05T11:55:09.345Z,100389.13
2022-10-05T11:57:40.326Z,100374.00
2022-10-05T12:00:16.741Z,100370.38
2022-10-05T12:03:24.739Z,100374.50
2022-10-05T12:06:07.339Z,100371.47
2022-10-05T12:08:42.982Z,100361.50
2022-10-05T12:11:30.113Z,100348.69
2022-10-05T12:14:07.135Z,100355.41
2022-10-05T12:16:39.887Z,100341.78
2022-10-05T12:19:15.968Z,100335.19
2022-10-05T12:21:50.810Z,100328.63
2022-10-05T12:24:27.051Z,100330.09
2022-10-05T12:27:02.088Z,100328.88
2022-10-05T12:29:41.009Z,100323.00
2022-10-05T12:32:14.140Z,100315.22
2022-10-05T12:34:51.310Z,100311.09
2022-10-05T12:37:40.296Z,100296.91
2022-10-05T12:40:24.252Z,100276.69
2022-10-05T12:43:00.170Z,100293.75
2022-10-05T12:45:43.441Z,100289.69
2022-10-05T12:48:22.368Z,100281.28
2022-10-05T12:50:53.059Z,100289.94
2022-10-05T12:53:39.810Z,100278.69
2022-10-05T12:56:13.694Z,100277.34
2022-10-05T12:58:52.026Z,100286.00
2022-10-05T13:01:32.498Z,100277.69
2022-10-05T13:04:06.900Z,100282.66
2022-10-05T13:06:45.184Z,100267.16
2022-10-05T13:09:18.434Z,100278.50
2022-10-05T13:11:51.014Z,100280.94
2022-10-05T13:14:35.363Z,100268.34
2022-10-05T13:17:10.028Z,100264.81
2022-10-05T13:19:44.568Z,100261.28
2022-10-05T13:22:30.250Z,100256.75
2022-10-05T13:25:09.755Z,100248.69
2022-10-05T13:27:43.402Z,100238.78
2022-10-05T13:30:17.214Z,100235.88
2022-10-05T13:32:50.261Z,100227.66
2022-10-05T13:35:30.944Z,100220.59
2022-10-05T13:38:06.130Z,100229.34
2022-10-05T13:40:38.381Z,100225.69
2022-10-05T13:43:15.002Z,100230.94
2022-10-05T13:45:52.672Z,100232.78
2022-10-05T13:48:56.867Z,100222.88
2022-10-05T13:51:27.770Z,100211.16
2022-10-05T13:54:04.816Z,100213.84
2022-10-05T13:56:36.940Z,100209.31
2022-10-05T13:59:12.000Z,100211.16
2022-10-05T14:01:44.743Z,100217.50
2022-10-05T14:04:22.091Z,100215.69
2022-10-05T14:06:52.598Z,100209.56
2022-10-05T14:09:33.907Z,100207.84
2022-10-05T14:12:16.257Z,100218.03
2022-10-05T14:14:48.524Z,100215.72
2022-10-05T14:17:19.793Z,100206.94
2022-10-05T14:19:53.011Z,100211.59
2022-10-05T14:22:25.055Z,100207.22
2022-10-05T14:24:57.912Z,100206.34
2022-10-05T14:27:29.124Z,100205.50
2022-10-05T14:30:01.237Z,100215.38
2022-10-05T14:32:34.480Z,100201.25
2022-10-05T14:35:16.725Z,100209.31
2022-10-05T14:37:49.739Z,100208.56
2022-10-05T14:40:31.196Z,100213.94
2022-10-05T14:43:01.492Z,100214.06
2022-10-05T14:45:33.964Z,100211.38
2022-10-05T14:48:12.765Z,100210.53
2022-10-05T14:50:57.689Z,100223.13
2022-10-05T14:53:27.943Z,100209.09
2022-10-05T14:56:17.291Z,100218.13
2022-10-05T14:59:15.880Z,100213.16
2022-10-05T15:01:48.113Z,100226.84
2022-10-05T15:04:26.283Z,100227.06
2022-10-05T15:07:11.078Z,100230.16
2022-10-05T15:09:51.063Z,100231.25
2022-10-05T15:12:26.903Z,100235.88
2022-10-05T15:15:00.387Z,100240.53
2022-10-05T15:17:36.640Z,100247.63
2022-10-05T15:20:15.098Z,100240.53
2022-10-05T15:22:51.472Z,100240.41
2022-10-05T15:25:27.860Z,100232.34
2022-10-05T15:28:08.614Z,100242.13
2022-10-05T15:30:41.101Z,100245.66
2022-10-05T15:33:18.188Z,100248.34
2022-10-05T15:36:12.866Z,100250.88
2022-10-05T15:38:54.185Z,100250.78
2022-10-05T15:41:27.957Z,100242.00
2022-10-05T15:44:06.572Z,100254.31
2022-10-05T15:46:39.075Z,100252.94
2022-10-05T15:49:23.655Z,100263.28
2022-10-05T15:52:02.156Z,100266.47
2022-10-05T15:55:12.849Z,100278.53
2022-10-05T15:57:48.095Z,100280.97
2022-10-05T16:00:19.623Z,100286.09
2022-10-05T16:02:54.439Z,100285.94
2022-10-05T16:05:49.880Z,100292.91
2022-10-05T16:08:40.389Z,100296.56
2022-10-05T16:11:20.330Z,100295.72
2022-10-05T16:13:54.680Z,100301.22
2022-10-05T16:16:29.778Z,100311.22
2022-10-05T16:19:03.779Z,100315.03
2022-10-05T16:21:38.946Z,100311.50
2022-10-05T16:24:20.075Z,100321.38
2022-10-05T16:26:59.181Z,100322.50
2022-10-05T16:29:39.130Z,100333.25
2022-10-05T16:32:10.428Z,100342.28
2022-10-05T16:34:49.534Z,100343.09
2022-10-05T16:37:29.577Z,100350.19
2022-10-05T16:40:02.242Z,100350.19
2022-10-05T16:42:41.996Z,100351.03
2022-10-05T16:45:23.486Z,100358.25
2022-10-05T16:47:56.527Z,100355.81
2022-10-05T16:50:28.263Z,100356.78
2022-10-05T16:53:01.781Z,100368.78
2022-10-05T16:55:36.290Z,100369.16
2022-10-05T16:58:16.299Z,100383.06
2022-10-05T17:00:54.623Z,100381.22
2022-10-05T17:03:35.139Z,100387.72
2022-10-05T17:06:16.754Z,100396.69
2022-10-05T17:09:24.260Z,100399.13
2022-10-05T17:12:06.014Z,100419.59
2022-10-05T17:14:43.014Z,100421.78
2022-10-05T17:17:36.548Z,100426.97
2022-10-05T17:20:23.630Z,100444.00
2022-10-05T17:22:55.021Z,100444.34
2022-10-05T17:25:30.597Z,100456.81
2022-10-05T17:28:19.258Z,100463.19
2022-10-05T17:31:08.193Z,100472.72
2022-10-05T17:34:10.511Z,100473.19
2022-10-05T17:36:47.510Z,100486.19
2022-10-05T17:39:19.902Z,100480.28
2022-10-05T17:41:49.727Z,100491.47
2022-10-05T17:44:27.591Z,100497.25
2022-10-05T17:46:59.212Z,100499.63
2022-10-05T17:50:09.056Z,100502.22
2022-10-05T17:52:51.532Z,100510.16
2022-10-05T17:55:38.362Z,100515.16
2022-10-05T17:58:39.957Z,100531.66
2022-10-05T18:01:20.302Z,100529.09
2022-10-05T18:03:51.726Z,100530.69
2022-10-05T18:06:37.470Z,100536.56
2022-10-05T18:09:37.795Z,100538.09
2022-10-05T18:12:27.044Z,100542.69
2022-10-05T18:15:04.519Z,100546.53
2022-10-05T18:17:41.152Z,100550.16
2022-10-05T18:20:18.793Z,100552.72
2022-10-05T18:22:52.923Z,100548.03
2022-10-05T18:25:29.452Z,100535.41
2022-10-05T18:28:09.770Z,100540.56
2022-10-05T18:30:44.719Z,100536.81
2022-10-05T18:33:39.472Z,100539.38
2022-10-05T18:36:17.063Z,100543.78
2022-10-05T18:38:55.325Z,100540.97
2022-10-05T18:41:34.441Z,100542.66
2022-10-05T18:44:25.120Z,100541.59
2022-10-05T18:46:58.170Z,100545.16
2022-10-05T18:49:39.508Z,100557.47
2022-10-05T18:52:13.416Z,100550.28
2022-10-05T18:54:49.736Z,100555.53
2022-10-05T18:57:46.223Z,100551.91
2022-10-05T19:00:18.743Z,100557.16
2022-10-05T19:02:51.472Z,100545.47
2022-10-05T19:05:54.458Z,100551.69
2022-10-05T19:08:32.846Z,100559.72
2022-10-05T19:11:15.449Z,100559.72
2022-10-05T19:13:51.026Z,100558.88
2022-10-05T19:16:33.753Z,100550.84
2022-10-05T19:19:14.166Z,100558.88
2022-10-05T19:21:48.768Z,100564.53
2022-10-05T19:24:37.518Z,100568.19
2022-10-05T19:27:14.683Z,100563.03
2022-10-05T19:29:54.541Z,100564.00
2022-10-05T19:32:30.197Z,100562.50
2022-10-05T19:35:08.211Z,100567.09
2022-10-05T19:37:43.541Z,100580.47
2022-10-05T19:40:19.236Z,100576.09
2022-10-05T19:43:06.732Z,100582.22
2022-10-05T19:45:39.395Z,100579.53
2022-10-05T19:48:19.736Z,100577.59
2022-10-05T19:50:57.395Z,100587.34
2022-10-05T19:53:28.319Z,100582.84
2022-10-05T19:55:58.008Z,100581.75
2022-10-05T19:58:33.250Z,100593.25
2022-10-05T20:01:04.936Z,100582.53
2022-10-05T20:03:36.780Z,100593.03
2022-10-05T20:06:07.789Z,100593.03
2022-10-05T20:08:41.874Z,100588.50
2022-10-05T20:11:14.230Z,100599.97
2022-10-05T20:13:48.345Z,100596.34
2022-10-05T20:16:36.434Z,100599.88
2022-10-05T20:19:19.167Z,100598.16
2022-10-05T20:21:50.603Z,100588.31
2022-10-05T20:24:22.372Z,100597.19
2022-10-05T20:27:06.697Z,100599.03
2022-10-05T20:29:40.420Z,100600.84
2022-10-05T20:32:12.306Z,100609.63
2022-10-05T20:34:43.646Z,100612.41
2022-10-05T20:37:14.546Z,100614.22
2022-10-05T20:39:44.633Z,100617.88
2022-10-05T20:42:14.351Z,100627.72
2022-10-05T20:44:47.030Z,100633.94
2022-10-05T20:47:16.536Z,100640.16
2022-10-05T20:49:46.071Z,100637.38
2022-10-05T20:52:15.822Z,100647.13
2022-10-05T20:57:15.966Z,100647.97
2022-10-05T20:59:48.116Z,100645.19
2022-10-05T21:02:18.868Z,100651.31
2022-10-05T21:04:49.374Z,100654.72
2022-10-05T21:07:21.025Z,100650.13
2022-10-05T21:09:51.605Z,100654.31
2022-10-05T21:12:21.113Z,100656.66
2022-10-05T21:14:53.228Z,100650.13
2022-10-05T21:17:22.854Z,100663.22
2022-10-05T21:19:52.600Z,100669.31
2022-10-05T21:22:22.640Z,100670.81
2022-10-05T21:24:52.123Z,100661.81
2022-10-05T21:27:21.668Z,100673.25
2022-10-05T21:29:53.910Z,100674.03
2022-10-05T21:32:23.435Z,100677.53
2022-10-05T21:34:52.922Z,100674.88
2022-10-05T21:37:22.468Z,100675.63
2022-10-05T21:39:52.011Z,100671.00
2022-10-05T21:42:23.471Z,100675.53
2022-10-05T21:44:55.717Z,100675.63
2022-10-05T21:47:25.275Z,100684.75
2022-10-05T21:49:54.845Z,100692.88
2022-10-05T21:52:24.731Z,100682.28
2022-10-05T21:54:54.248Z,100692.13
2022-10-05T21:57:23.977Z,100693.97
2022-10-05T21:59:56.151Z,100691.38
2022-10-05T22:02:25.796Z,100693.31
2022-10-05T22:04:55.345Z,100705.09
2022-10-05T22:07:24.888Z,100709.59
2022-10-05T22:09:54.745Z,100752.78
2022-10-05T22:12:24.512Z,100783.97
2022-10-05T22:14:56.807Z,100801.78
2022-10-05T22:17:28.135Z,100804.28
2022-10-05T22:19:58.130Z,100815.75
2022-10-05T22:22:28.321Z,100824.84
2022-10-05T22:24:58.275Z,100825.75
2022-10-05T22:27:30.686Z,100842.50
2022-10-05T22:30:03.740Z,100837.59
2022-10-05T22:32:33.298Z,100849.41
2022-10-05T22:35:02.818Z,100844.13
2022-10-05T22:37:34.940Z,100858.94
2022-10-05T22:40:04.527Z,100845.41
2022-10-05T22:42:34.088Z,100846.63
2022-10-05T22:45:06.700Z,100854.94
2022-10-05T22:47:36.321Z,100854.31
2022-10-05T22:50:05.959Z,100864.22
2022-10-05T22:52:35.577Z,100871.38
2022-10-05T22:55:05.447Z,100873.19
2022-10-05T22:57:40.567Z,100874.88
2022-10-05T23:00:14.464Z,100878.44
2022-10-05T23:02:45.688Z,100881.00
2022-10-05T23:05:17.155Z,100888.06
2022-10-05T23:07:48.144Z,100894.09
2022-10-05T23:10:20.143Z,100886.91
2022-10-05T23:13:00.575Z,100890.25
2022-10-05T23:15:33.796Z,100901.63
2022-10-05T23:18:03.360Z,100901.47
2022-10-05T23:20:32.876Z,100904.75
2022-10-05T23:23:02.611Z,100906.25
2022-10-05T23:25:32.155Z,100910.41
2022-10-05T23:28:01.779Z,100920.84
2022-10-05T23:30:34.484Z,100939.09
2022-10-05T23:33:04.081Z,100969.03
2022-10-05T23:35:33.589Z,100990.44
2022-10-05T23:38:03.131Z,100991.66
2022-10-05T23:40:32.729Z,101009.53
2022-10-05T23:43:02.620Z,101029.09
2022-10-05T23:45:34.786Z,101048.38
2022-10-05T23:48:04.351Z,101038.09
2022-10-05T23:50:34.077Z,101036.13
2022-10-05T23:53:03.597Z,101048.16
2022-10-05T23:55:33.123Z,101038.88
2022-10-05T23:58:02.711Z,101040.03
